createdAt,value
2023-04-21T00:04:04.152Z,7.40
2023-04-21T00:09:11.259Z,8.30
2023-04-21T00:14:16.263Z,6.67
2023-04-21T00:19:24.004Z,7.32
2023-04-21T00:24:42.992Z,7.57
2023-04-21T00:29:48.066Z,8.38
2023-04-21T00:34:51.454Z,8.70
2023-04-21T00:39:58.852Z,8.27
2023-04-21T00:45:05.695Z,7.63
2023-04-21T00:50:11.260Z,10.30
2023-04-21T00:55:16.272Z,9.67
2023-04-21T01:00:21.723Z,10.33
2023-04-21T01:05:25.391Z,9.67
2023-04-21T01:10:33.649Z,8.30
2023-04-21T01:15:38.411Z,8.10
2023-04-21T01:20:42.163Z,5.73
2023-04-21T01:25:47.388Z,7.23
2023-04-21T01:30:51.305Z,5.30
2023-04-21T01:35:57.083Z,4.73
2023-04-21T01:41:01.852Z,5.13
2023-04-21T01:46:05.815Z,3.37
2023-04-21T01:51:09.419Z,4.27
2023-04-21T01:56:17.299Z,3.90
2023-04-21T02:01:21.786Z,4.30
2023-04-21T02:06:27.679Z,5.00
2023-04-21T02:11:32.647Z,6.30
2023-04-21T02:16:35.961Z,6.33
2023-04-21T02:21:40.357Z,6.83
2023-04-21T02:26:47.155Z,5.20
2023-04-21T02:31:59.325Z,6.73
2023-04-21T02:37:07.048Z,9.47
2023-04-21T02:42:12.974Z,12.40
2023-04-21T02:47:18.411Z,13.17
2023-04-21T02:52:22.011Z,10.23
2023-04-21T02:57:34.474Z,9.37
2023-04-21T03:02:39.898Z,7.97
2023-04-21T03:07:50.432Z,11.67
2023-04-21T03:12:58.454Z,9.30
2023-04-21T03:18:02.018Z,10.50
2023-04-21T03:23:08.469Z,13.03
2023-04-21T03:28:13.815Z,8.70
2023-04-21T03:33:17.182Z,10.30
2023-04-21T03:38:22.172Z,15.07
2023-04-21T03:43:27.289Z,10.70
2023-04-21T03:48:32.068Z,7.40
2023-04-21T03:53:41.222Z,7.50
2023-04-21T03:58:49.699Z,10.10
2023-04-21T04:04:05.725Z,9.03
2023-04-21T04:09:10.090Z,10.07
2023-04-21T04:14:17.238Z,8.00
2023-04-21T04:19:20.765Z,14.53
2023-04-21T04:24:26.928Z,12.57
2023-04-21T04:29:31.995Z,16.10
2023-04-21T04:34:37.804Z,6.90
2023-04-21T04:39:42.432Z,6.30
2023-04-21T04:44:47.261Z,13.00
2023-04-21T04:49:53.187Z,11.73
2023-04-21T04:54:56.690Z,14.30
2023-04-21T05:05:31.223Z,9.37
2023-04-21T05:10:35.035Z,10.47
2023-04-21T05:15:40.209Z,10.13
2023-04-21T05:20:48.678Z,10.37
2023-04-21T05:26:01.942Z,9.03
2023-04-21T05:31:11.304Z,9.30
2023-04-21T05:36:14.804Z,7.43
2023-04-21T05:41:20.114Z,14.50
2023-04-21T05:46:26.947Z,8.73
2023-04-21T05:51:33.429Z,8.87
2023-04-21T05:56:38.682Z,14.87
2023-04-21T06:07:17.550Z,10.00
2023-04-21T06:12:22.444Z,9.30
2023-04-21T06:17:27.798Z,7.47
2023-04-21T06:22:31.454Z,10.03
2023-04-21T06:27:35.632Z,6.50
2023-04-21T06:32:48.781Z,14.00
2023-04-21T06:37:59.485Z,10.45
2023-04-21T06:43:04.923Z,10.73
2023-04-21T06:48:15.194Z,7.55
2023-04-21T06:53:26.886Z,8.10
2023-04-21T06:58:32.274Z,6.68
2023-04-21T07:03:38.584Z,5.53
2023-04-21T07:08:44.327Z,7.53
2023-04-21T07:13:57.846Z,5.03
2023-04-21T07:19:04.044Z,7.05
2023-04-21T07:24:09.386Z,3.97
2023-04-21T07:29:18.788Z,4.47
2023-04-21T07:34:24.403Z,3.80
2023-04-21T07:39:30.424Z,4.45
2023-04-21T07:44:37.270Z,4.10
2023-04-21T07:49:43.701Z,4.30
2023-04-21T07:54:52.022Z,4.47
2023-04-21T08:05:41.952Z,4.97
2023-04-21T08:10:49.211Z,4.82
2023-04-21T08:15:56.643Z,5.45
2023-04-21T08:21:04.306Z,5.47
2023-04-21T08:26:08.029Z,5.30
2023-04-21T08:31:11.573Z,4.90
2023-04-21T08:36:28.946Z,4.60
2023-04-21T08:41:33.463Z,5.32
2023-04-21T08:46:39.688Z,5.40
2023-04-21T08:51:46.303Z,4.80
2023-04-21T08:56:52.417Z,4.40
2023-04-21T09:02:12.737Z,5.25
2023-04-21T09:07:35.667Z,13.25
2023-04-21T09:13:21.914Z,5.38
2023-04-21T09:18:28.159Z,5.45
2023-04-21T09:23:33.040Z,5.63
2023-04-21T09:28:40.753Z,4.90
2023-04-21T09:33:57.808Z,4.70
2023-04-21T09:44:13.605Z,4.15
2023-04-21T09:49:19.460Z,4.45
2023-04-21T09:54:32.729Z,4.22
2023-04-21T09:59:39.194Z,4.25
2023-04-21T10:04:44.197Z,4.45
2023-04-21T10:09:55.632Z,3.13
2023-04-21T10:14:59.460Z,3.00
2023-04-21T10:20:05.131Z,3.03
2023-04-21T10:25:13.722Z,3.50
2023-04-21T10:30:22.782Z,3.70
2023-04-21T10:35:47.618Z,3.33
2023-04-21T10:40:53.083Z,4.38
2023-04-21T10:45:57.991Z,5.30
2023-04-21T10:51:03.608Z,4.53
2023-04-21T10:56:11.422Z,4.47
2023-04-21T11:01:15.338Z,4.78
2023-04-21T11:06:21.532Z,4.28
2023-04-21T11:11:29.138Z,5.57
2023-04-21T11:16:33.063Z,4.50
2023-04-21T11:21:36.659Z,4.07
2023-04-21T11:26:42.872Z,3.92
2023-04-21T11:31:55.537Z,4.80
2023-04-21T11:37:00.166Z,4.82
2023-04-21T11:42:07.055Z,4.32
2023-04-21T11:47:21.493Z,4.30
2023-04-21T11:52:29.109Z,4.65
2023-04-21T11:57:35.368Z,3.97
2023-04-21T12:02:41.908Z,4.18
2023-04-21T12:07:46.401Z,4.00
2023-04-21T12:12:51.948Z,3.58
2023-04-21T12:17:59.560Z,4.50
2023-04-21T12:23:03.053Z,3.92
2023-04-21T12:28:10.278Z,4.18
2023-04-21T12:33:15.636Z,3.83
2023-04-21T12:38:21.017Z,4.25
2023-04-21T12:43:26.309Z,4.05
2023-04-21T12:48:30.047Z,4.45
2023-04-21T12:53:33.613Z,4.78
2023-04-21T12:58:38.376Z,4.32
2023-04-21T13:03:43.471Z,4.30
2023-04-21T13:08:48.940Z,4.18
2023-04-21T13:13:54.117Z,4.07
2023-04-21T13:18:59.035Z,4.13
2023-04-21T13:24:03.824Z,3.45
2023-04-21T13:29:09.156Z,3.83
2023-04-21T13:34:12.522Z,3.30
2023-04-21T13:39:16.182Z,2.92
2023-04-21T13:44:21.659Z,2.67
2023-04-21T13:49:28.019Z,2.70
2023-04-21T13:54:31.530Z,2.95
2023-04-21T13:59:36.636Z,3.58
2023-04-21T14:04:42.446Z,2.38
2023-04-21T14:09:46.110Z,2.30
2023-04-21T14:14:50.737Z,2.13
2023-04-21T14:19:55.312Z,1.88
2023-04-21T14:24:59.026Z,2.10
2023-04-21T14:30:07.321Z,1.48
2023-04-21T14:35:11.330Z,1.67
2023-04-21T14:40:17.758Z,1.00
2023-04-21T14:45:24.546Z,1.60
2023-04-21T14:50:28.130Z,2.30
2023-04-21T14:55:31.610Z,1.98
2023-04-21T15:00:38.008Z,2.00
2023-04-21T15:05:41.541Z,1.58
2023-04-21T15:10:45.214Z,1.40
2023-04-21T15:15:51.572Z,1.50
2023-04-21T15:20:55.551Z,1.08
2023-04-21T15:25:58.992Z,1.20
2023-04-21T15:31:04.299Z,0.55
2023-04-21T15:36:09.028Z,0.63
2023-04-21T15:41:12.474Z,0.50
2023-04-21T15:46:18.147Z,0.85
2023-04-21T15:51:21.582Z,1.20
2023-04-21T15:56:25.062Z,0.93
2023-04-21T16:01:29.681Z,1.20
2023-04-21T16:06:35.010Z,0.90
2023-04-21T16:11:38.765Z,1.20
2023-04-21T16:16:44.721Z,1.02
2023-04-21T16:21:53.470Z,0.80
2023-04-21T16:26:57.941Z,0.75
2023-04-21T16:32:05.931Z,0.82
2023-04-21T16:37:09.518Z,1.00
2023-04-21T16:42:12.842Z,1.47
2023-04-21T16:47:18.813Z,0.60
2023-04-21T16:52:22.387Z,0.30
2023-04-21T16:57:25.907Z,1.17
2023-04-21T17:02:30.839Z,0.32
2023-04-21T17:07:35.368Z,0.40
2023-04-21T17:12:40.239Z,0.40
2023-04-21T17:17:47.263Z,0.40
2023-04-21T17:22:50.706Z,0.50
2023-04-21T17:27:56.242Z,0.40
2023-04-21T17:33:15.446Z,0.32
2023-04-21T17:38:20.226Z,0.50
2023-04-21T17:43:23.516Z,0.57
2023-04-21T17:48:28.409Z,0.52
2023-04-21T17:53:32.294Z,0.73
2023-04-21T17:58:36.258Z,0.70
2023-04-21T18:03:48.644Z,0.70
2023-04-21T18:08:52.119Z,0.75
2023-04-21T18:13:55.531Z,0.70
2023-04-21T18:19:00.352Z,0.82
2023-04-21T18:24:05.180Z,0.70
2023-04-21T18:29:08.699Z,0.70
2023-04-21T18:34:14.407Z,1.02
2023-04-21T18:39:19.230Z,0.70
2023-04-21T18:44:22.618Z,1.00
2023-04-21T18:49:27.692Z,0.75
2023-04-21T18:54:32.218Z,0.77
2023-04-21T18:59:37.845Z,3.67
2023-04-21T19:04:45.890Z,2.85
2023-04-21T19:09:51.102Z,1.58
2023-04-21T19:14:54.523Z,1.25
2023-04-21T19:19:59.640Z,1.00
2023-04-21T19:25:08.530Z,1.10
2023-04-21T19:30:12.516Z,1.40
2023-04-21T19:35:17.408Z,1.40
2023-04-21T19:40:21.035Z,1.13
2023-04-21T19:45:25.251Z,1.30
2023-04-21T19:50:30.151Z,1.08
2023-04-21T19:55:34.531Z,0.88
2023-04-21T20:00:37.878Z,1.13
2023-04-21T20:05:46.077Z,1.10
2023-04-21T20:10:49.498Z,1.00
2023-04-21T20:15:53.125Z,1.10
2023-04-21T20:20:58.062Z,1.10
2023-04-21T20:26:01.485Z,1.02
2023-04-21T20:31:06.074Z,1.20
2023-04-21T20:36:14.928Z,1.30
2023-04-21T20:41:18.648Z,0.90
2023-04-21T20:46:22.064Z,0.90
2023-04-21T20:51:27.656Z,1.02
2023-04-21T20:56:30.945Z,7.72
2023-04-21T21:01:38.943Z,4.55
2023-04-21T21:06:44.003Z,2.17
2023-04-21T21:11:47.366Z,1.65
2023-04-21T21:16:54.661Z,13.38
2023-04-21T21:21:59.623Z,9.10
2023-04-21T21:27:03.166Z,3.90
2023-04-21T21:32:07.111Z,2.80
2023-04-21T21:37:12.882Z,1.70
2023-04-21T21:42:17.340Z,1.58
2023-04-21T21:47:20.982Z,1.35
2023-04-21T21:52:26.606Z,1.52
2023-04-21T21:57:29.951Z,1.70
2023-04-21T22:02:34.362Z,1.45
2023-04-21T22:07:43.054Z,1.30
2023-04-21T22:12:46.389Z,1.63
2023-04-21T22:17:49.815Z,1.20
2023-04-21T22:22:54.705Z,1.30
2023-04-21T22:27:58.470Z,1.08
2023-04-21T22:33:01.917Z,1.50
2023-04-21T22:38:07.047Z,1.73
2023-04-21T22:43:10.698Z,1.60
2023-04-21T22:48:14.270Z,2.13
2023-04-21T22:53:21.314Z,1.50
2023-04-21T22:58:31.173Z,1.60
2023-04-21T23:03:34.730Z,1.60
2023-04-21T23:08:39.669Z,1.50
2023-04-21T23:13:43.038Z,1.63
2023-04-21T23:18:46.368Z,1.67
2023-04-21T23:23:51.119Z,1.50
2023-04-21T23:28:56.465Z,1.48
2023-04-21T23:34:00.867Z,1.48
2023-04-21T23:39:06.500Z,2.08
2023-04-21T23:44:09.903Z,2.00
2023-04-21T23:49:13.324Z,2.17
2023-04-21T23:54:18.075Z,2.00
2023-04-21T23:59:21.337Z,2.30
